Time;durP1;ratioP1;P1;durP2;ratioP2;P2;SDS_P1;SDS_P2;PMS_P1;PMS_P2;Temp;Humidity;BMP_temperature;BMP_pressure;BME280_temperature;BME280_humidity;BME280_pressure;Samples;Min_cycle;Max_cycle;Signal;HPM_P1;HPM_P2
2021/10/24 00:00:14;;;;;;;11.57;5.97;;;;;;;13.41;73.00;99567.63;5059097;28;20063;-94
2021/10/24 00:02:42;;;;;;;11.07;5.90;;;;;;;13.45;73.44;99584.47;5077522;28;20044;-94
2021/10/24 00:05:08;;;;;;;10.55;4.97;;;;;;;13.44;73.41;99588.03;5079016;28;20045;-95
2021/10/24 00:07:34;;;;;;;8.57;4.60;;;;;;;13.35;73.16;99571.31;5081669;28;20047;-94
2021/10/24 00:10:00;;;;;;;11.52;5.22;;;;;;;13.25;73.63;99561.78;5080488;28;20044;-95
2021/10/24 00:12:26;;;;;;;7.00;4.40;;;;;;;13.42;72.96;99589.88;5084745;28;20126;-93
2021/10/24 00:14:52;;;;;;;9.02;4.65;;;;;;;13.35;72.84;99560.63;5085960;28;20561;-95
2021/10/24 00:17:18;;;;;;;7.90;4.45;;;;;;;13.35;72.71;99579.34;5079777;28;20068;-94
2021/10/24 00:19:46;;;;;;;8.55;4.53;;;;;;;13.25;73.01;99569.78;5083961;28;20047;-94
2021/10/24 00:22:12;;;;;;;9.10;4.68;;;;;;;13.31;73.17;99591.00;5090715;28;20049;-94
2021/10/24 00:24:38;;;;;;;9.95;5.05;;;;;;;13.14;72.99;99555.78;5078862;28;20037;-93
2021/10/24 00:27:04;;;;;;;8.93;5.32;;;;;;;13.21;72.39;99553.88;5079307;28;20036;-94
2021/10/24 00:29:30;;;;;;;8.38;4.78;;;;;;;13.18;72.72;99545.94;5082550;28;20049;-94
2021/10/24 00:31:56;;;;;;;10.65;5.38;;;;;;;13.32;72.80;99575.88;5088966;28;20043;-94
2021/10/24 00:34:22;;;;;;;8.05;5.38;;;;;;;13.11;73.14;99545.22;5080057;28;20045;-94
2021/10/24 00:36:49;;;;;;;9.75;5.45;;;;;;;13.11;73.67;99566.56;5080809;28;20041;-93
2021/10/24 00:39:15;;;;;;;11.38;5.03;;;;;;;13.02;74.03;99551.66;5089479;28;20043;-94
2021/10/24 00:41:43;;;;;;;11.32;5.38;;;;;;;13.19;73.44;99564.59;5080874;28;20072;-93
2021/10/24 00:44:21;;;;;;;10.87;5.30;;;;;;;13.07;73.60;99554.22;5084912;28;20044;-96
2021/10/24 00:46:47;;;;;;;11.30;5.63;;;;;;;12.95;73.97;99550.94;5084329;28;20405;-93
2021/10/24 00:49:12;;;;;;;11.15;5.38;;;;;;;12.97;74.04;99553.56;5083292;28;20059;-94
2021/10/24 00:51:38;;;;;;;9.23;5.43;;;;;;;13.00;74.49;99560.63;5099036;28;20071;-94
2021/10/24 00:54:07;;;;;;;11.25;6.05;;;;;;;12.97;74.19;99553.56;5083326;28;20052;-94
2021/10/24 00:56:33;;;;;;;10.13;5.28;;;;;;;13.06;73.42;99552.47;5079462;28;20107;-95
2021/10/24 00:59:00;;;;;;;9.68;4.93;;;;;;;13.06;73.31;99549.78;5079159;28;20127;-94
2021/10/24 01:01:26;;;;;;;8.18;5.18;;;;;;;13.19;73.23;99563.72;5079407;28;20037;-94
2021/10/24 01:03:52;;;;;;;8.70;4.95;;;;;;;13.12;73.03;99544.31;5081815;28;20066;-94
2021/10/24 01:06:18;;;;;;;7.22;4.78;;;;;;;12.93;73.67;99527.84;5090783;28;20064;-94
2021/10/24 01:08:44;;;;;;;12.05;5.40;;;;;;;12.95;73.82;99528.69;5077958;28;20052;-93
2021/10/24 01:11:11;;;;;;;9.85;5.22;;;;;;;12.94;73.22;99518.91;5085545;28;20362;-93
2021/10/24 01:13:37;;;;;;;7.80;5.28;;;;;;;13.07;72.81;99527.50;5078408;28;20521;-95
2021/10/24 01:16:11;;;;;;;9.88;5.18;;;;;;;13.03;73.05;99531.16;5080981;28;20131;-95
2021/10/24 01:18:37;;;;;;;11.10;5.03;;;;;;;13.00;73.04;99539.25;5078948;28;20055;-94
2021/10/24 01:21:04;;;;;;;8.95;4.80;;;;;;;13.06;72.73;99531.97;5078618;28;20045;-94
2021/10/24 01:23:30;;;;;;;9.07;4.85;;;;;;;13.00;72.23;99524.09;5094532;28;20043;-93
2021/10/24 01:25:57;;;;;;;7.30;4.53;;;;;;;13.06;71.55;99523.09;5098928;28;20485;-95
2021/10/24 01:28:23;;;;;;;8.20;4.75;;;;;;;13.03;71.63;99518.69;5092186;28;20119;-93
2021/10/24 01:30:49;;;;;;;6.88;4.40;;;;;;;13.06;71.99;99520.44;5077990;28;20068;-95
2021/10/24 01:33:15;;;;;;;10.73;5.25;;;;;;;12.93;71.75;99514.50;5082403;28;20048;-93
2021/10/24 01:35:50;;;;;;;6.90;4.68;;;;;;;13.02;71.45;99521.41;5077969;28;20040;-95
2021/10/24 01:38:17;;;;;;;12.00;4.93;;;;;;;12.89;71.26;99503.03;5082078;28;20033;-94
2021/10/24 01:40:43;;;;;;;12.45;4.57;;;;;;;12.90;71.17;99518.13;5078713;28;20040;-94
2021/10/24 01:43:09;;;;;;;9.68;4.40;;;;;;;12.92;70.70;99512.75;5076870;28;20106;-94
2021/10/24 01:45:35;;;;;;;8.50;4.68;;;;;;;12.92;70.13;99507.41;5077487;28;20135;-95
2021/10/24 01:48:01;;;;;;;7.35;4.15;;;;;;;12.90;70.21;99495.88;5077925;28;20041;-95
2021/10/24 01:50:27;;;;;;;9.13;4.82;;;;;;;13.02;70.16;99524.09;5077980;28;20052;-95
2021/10/24 01:52:53;;;;;;;7.00;4.47;;;;;;;13.03;70.26;99520.47;5077803;28;20055;-93
2021/10/24 01:55:21;;;;;;;8.95;5.00;;;;;;;12.92;69.90;99508.31;5082101;28;20044;-94
2021/10/24 01:57:51;;;;;;;11.57;4.60;;;;;;;12.87;69.45;99499.50;5095947;28;20040;-93
2021/10/24 02:00:17;;;;;;;7.70;4.10;;;;;;;12.98;69.43;99515.25;5098196;28;20044;-91
2021/10/24 02:02:44;;;;;;;7.85;4.30;;;;;;;12.94;69.32;99509.09;5090631;28;20048;-94
2021/10/24 02:05:10;;;;;;;9.45;4.50;;;;;;;12.93;69.50;99506.50;5079610;28;20486;-95
2021/10/24 02:07:37;;;;;;;8.18;4.63;;;;;;;12.82;69.85;99501.44;5077956;28;20440;-92
2021/10/24 02:10:04;;;;;;;8.60;4.68;;;;;;;12.92;69.25;99504.72;5077045;28;20375;-94
2021/10/24 02:12:31;;;;;;;7.35;4.53;;;;;;;12.83;68.67;99495.16;5080649;28;20079;-93
2021/10/24 02:14:57;;;;;;;9.57;4.22;;;;;;;12.93;68.21;99498.50;5077382;28;20036;-94
2021/10/24 02:17:23;;;;;;;9.20;4.70;;;;;;;12.97;67.96;99505.50;5079518;28;20068;-95
2021/10/24 02:19:49;;;;;;;7.65;4.22;;;;;;;12.86;67.42;99487.09;5077809;28;20436;-95
2021/10/24 02:22:15;;;;;;;8.70;4.65;;;;;;;12.90;67.82;99496.78;5085419;28;20040;-94
2021/10/24 02:24:41;;;;;;;8.55;3.70;;;;;;;12.82;68.16;99493.41;5076311;28;20045;-95
2021/10/24 02:27:07;;;;;;;7.75;4.10;;;;;;;12.81;67.35;99477.44;5079645;28;20070;-94
2021/10/24 02:29:35;;;;;;;7.88;4.47;;;;;;;12.82;66.97;99479.22;5088614;28;20063;-94
2021/10/24 02:32:01;;;;;;;7.28;4.28;;;;;;;12.94;66.98;99489.56;5077171;28;20067;-95
2021/10/24 02:34:27;;;;;;;7.47;3.80;;;;;;;12.75;67.21;99462.44;5076653;28;20045;-95
2021/10/24 02:36:53;;;;;;;6.50;4.25;;;;;;;12.76;67.30;99487.34;5076556;28;20143;-95
2021/10/24 02:39:19;;;;;;;6.88;4.07;;;;;;;12.68;67.79;99480.38;5082391;28;20036;-95
2021/10/24 02:41:45;;;;;;;8.40;4.20;;;;;;;12.70;67.76;99504.38;5080736;28;20043;-95
2021/10/24 02:44:12;;;;;;;10.07;4.55;;;;;;;12.73;67.31;99489.19;5082792;28;20113;-94
2021/10/24 02:46:40;;;;;;;7.00;4.45;;;;;;;12.82;66.73;99492.56;5086592;28;20044;-94
2021/10/24 02:49:06;;;;;;;7.78;4.22;;;;;;;12.84;67.23;99496.06;5078298;28;20091;-94
2021/10/24 02:51:32;;;;;;;9.18;4.35;;;;;;;12.74;67.44;99482.03;5093290;28;20048;-93
2021/10/24 02:53:58;;;;;;;6.45;3.72;;;;;;;12.73;66.95;99488.31;5078993;28;20539;-93
2021/10/24 02:56:24;;;;;;;9.93;4.50;;;;;;;12.83;66.66;99497.81;5086262;28;20060;-94
2021/10/24 02:58:50;;;;;;;9.30;4.20;;;;;;;12.78;66.85;99478.38;5084055;28;20040;-94
2021/10/24 03:01:16;;;;;;;7.10;4.53;;;;;;;12.80;67.36;99484.56;5080700;28;20078;-94
2021/10/24 03:03:43;;;;;;;7.82;4.38;;;;;;;12.78;66.83;99481.06;5076904;28;20047;-94
2021/10/24 03:06:09;;;;;;;7.95;4.30;;;;;;;12.86;66.72;99487.09;5076905;28;20036;-94
2021/10/24 03:08:35;;;;;;;10.13;4.25;;;;;;;12.73;66.65;99462.50;5076075;28;20044;-95
2021/10/24 03:11:01;;;;;;;6.78;4.05;;;;;;;12.73;66.55;99469.63;5076430;28;20564;-94
2021/10/24 03:13:27;;;;;;;8.23;4.30;;;;;;;12.77;66.45;99471.28;5082375;28;20534;-96
2021/10/24 03:18:53;;;;;;;8.23;4.35;;;;;;;12.75;67.21;99491.78;5140941;27;20380;-96
2021/10/24 03:21:19;;;;;;;7.95;4.40;;;;;;;12.63;67.79;99497.44;5148558;27;20130;-93
2021/10/24 03:23:45;;;;;;;6.90;4.57;;;;;;;12.56;67.29;99482.50;5135456;27;20077;-94
2021/10/24 03:26:11;;;;;;;8.00;4.03;;;;;;;12.57;67.35;99474.44;5144169;27;20047;-94
2021/10/24 03:28:37;;;;;;;9.13;4.60;;;;;;;12.52;67.60;99490.56;5135823;28;20044;-94
2021/10/24 03:31:03;;;;;;;11.75;4.80;;;;;;;12.64;67.01;99485.84;5140480;27;20046;-93
2021/10/24 03:33:29;;;;;;;9.30;4.72;;;;;;;12.68;67.23;99490.19;5155097;27;20137;-94
2021/10/24 03:35:57;;;;;;;7.72;4.65;;;;;;;12.66;66.93;99490.22;5155727;27;20063;-94
2021/10/24 03:38:23;;;;;;;7.85;4.25;;;;;;;12.59;66.96;99474.41;5154839;27;20062;-95
2021/10/24 03:40:49;;;;;;;7.03;3.97;;;;;;;12.60;67.37;99484.16;5155527;27;20043;-95
2021/10/24 03:43:15;;;;;;;6.60;3.83;;;;;;;12.60;67.08;99489.50;5153392;27;20057;-94
2021/10/24 03:45:40;;;;;;;7.45;4.22;;;;;;;12.58;67.04;99480.66;5154530;27;20046;-93
2021/10/24 03:48:06;;;;;;;5.88;4.22;;;;;;;12.54;67.21;99482.53;5155069;27;20031;-92
2021/10/24 03:50:33;;;;;;;6.43;3.55;;;;;;;12.47;67.49;99473.81;5157023;27;20043;-93
2021/10/24 03:53:00;;;;;;;7.85;4.53;;;;;;;12.61;67.20;99512.63;5156093;27;20412;-94
2021/10/24 03:55:26;;;;;;;6.03;3.60;;;;;;;12.51;67.65;99495.94;5155374;27;20053;-94
2021/10/24 03:57:52;;;;;;;8.55;3.75;;;;;;;12.46;66.87;99474.69;5156040;27;20039;-92
2021/10/24 04:00:18;;;;;;;8.02;4.13;;;;;;;12.65;66.75;99503.63;5155764;27;20499;-96
2021/10/24 04:02:52;;;;;;;6.28;4.00;;;;;;;12.50;67.09;99489.72;5155873;27;20043;-93
2021/10/24 04:05:18;;;;;;;6.15;3.67;;;;;;;12.50;67.40;99497.72;5150880;27;20516;-95
2021/10/24 04:07:44;;;;;;;6.80;4.13;;;;;;;12.39;66.47;99469.56;5152976;27;20045;-94
2021/10/24 04:10:11;;;;;;;6.20;3.70;;;;;;;12.51;66.98;99502.16;5155171;27;20073;-94
2021/10/24 04:12:37;;;;;;;9.70;4.50;;;;;;;12.39;66.99;99480.22;5155924;27;20070;-94
2021/10/24 04:15:04;;;;;;;7.05;4.00;;;;;;;12.51;67.12;99507.50;5155387;27;20047;-94
2021/10/24 04:17:30;;;;;;;8.07;4.00;;;;;;;12.47;66.93;99495.13;5155271;27;20039;-94
2021/10/24 04:19:56;;;;;;;6.15;3.67;;;;;;;12.28;67.01;99470.66;5156372;27;20039;-95
2021/10/24 04:22:22;;;;;;;7.10;3.63;;;;;;;12.25;66.80;99473.44;5155635;27;20043;-95
2021/10/24 04:24:48;;;;;;;8.57;4.07;;;;;;;12.33;66.51;99486.56;5152434;27;20551;-94
2021/10/24 04:27:15;;;;;;;9.10;4.50;;;;;;;12.24;67.55;99476.13;5156085;27;20038;-93
2021/10/24 04:29:41;;;;;;;6.25;3.67;;;;;;;12.25;67.73;99488.53;5144140;27;20039;-95
2021/10/24 04:32:07;;;;;;;6.63;4.07;;;;;;;12.31;67.86;99486.59;5141075;27;20046;-94
2021/10/24 04:34:33;;;;;;;6.15;3.80;;;;;;;12.18;68.44;99484.25;5140297;27;20039;-90
2021/10/24 04:36:59;;;;;;;9.68;4.07;;;;;;;12.01;69.37;99463.28;5139995;27;20047;-94
2021/10/24 04:39:25;;;;;;;8.95;4.85;;;;;;;11.77;70.54;99464.66;5140941;27;20050;-95
2021/10/24 04:41:51;;;;;;;6.22;4.20;;;;;;;11.89;70.07;99477.75;5141695;27;20043;-93
2021/10/24 04:44:18;;;;;;;12.43;4.22;;;;;;;11.76;70.58;99463.78;5142049;27;20039;-94
2021/10/24 04:46:44;;;;;;;8.68;4.20;;;;;;;11.73;69.82;99466.50;5135156;27;20120;-93
2021/10/24 04:49:10;;;;;;;6.28;3.97;;;;;;;11.79;70.14;99478.81;5131215;27;20063;-93
2021/10/24 04:51:36;;;;;;;8.32;4.55;;;;;;;11.82;70.02;99492.06;5141658;27;20100;-91
2021/10/24 04:54:02;;;;;;;11.05;4.18;;;;;;;11.63;70.44;99473.81;5139672;27;20110;-94
2021/10/24 04:56:28;;;;;;;9.25;4.38;;;;;;;11.74;70.27;99488.72;5139753;27;20039;-94
2021/10/24 04:58:53;;;;;;;6.43;3.97;;;;;;;11.58;70.61;99477.47;5139856;27;20050;-94
2021/10/24 05:01:21;;;;;;;6.82;3.80;;;;;;;11.63;70.15;99484.47;5139263;27;20043;-93
2021/10/24 05:03:48;;;;;;;6.55;3.72;;;;;;;11.63;70.54;99491.59;5139370;27;20096;-95
2021/10/24 05:06:14;;;;;;;6.85;3.65;;;;;;;11.64;70.35;99496.00;5140017;27;20047;-95
2021/10/24 05:08:40;;;;;;;9.40;3.88;;;;;;;11.42;71.13;99469.78;5139816;27;20062;-94
2021/10/24 05:11:06;;;;;;;6.95;3.97;;;;;;;11.50;71.18;99497.16;5139368;27;20148;-94
2021/10/24 05:13:32;;;;;;;7.43;4.40;;;;;;;11.38;71.28;99505.34;5139268;27;20046;-95
2021/10/24 05:15:58;;;;;;;6.60;3.55;;;;;;;11.35;71.00;99486.78;5140098;27;20043;-95
2021/10/24 05:18:25;;;;;;;6.95;3.83;;;;;;;11.35;70.68;99483.25;5140097;27;20040;-95
2021/10/24 05:20:51;;;;;;;7.70;3.80;;;;;;;11.28;71.07;99487.81;5139604;27;20042;-95
2021/10/24 05:23:17;;;;;;;6.80;3.90;;;;;;;11.41;71.17;99521.28;5138548;27;20555;-94
2021/10/24 05:25:43;;;;;;;7.00;4.05;;;;;;;11.25;70.91;99499.38;5139731;27;20120;-95
2021/10/24 05:28:09;;;;;;;7.03;3.50;;;;;;;11.30;71.63;99521.47;5140594;27;20042;-95
2021/10/24 05:30:35;;;;;;;7.28;3.95;;;;;;;11.09;71.25;99496.13;5140736;27;20031;-94
2021/10/24 05:33:01;;;;;;;6.57;4.20;;;;;;;11.05;71.75;99491.75;5124844;27;20044;-94
2021/10/24 05:35:28;;;;;;;6.95;3.75;;;;;;;11.07;71.50;99489.06;5137340;27;20456;-94
2021/10/24 05:37:54;;;;;;;7.78;3.80;;;;;;;11.20;71.85;99516.34;5140193;27;20581;-95
2021/10/24 05:40:20;;;;;;;7.43;3.80;;;;;;;11.19;71.74;99526.13;5139448;27;20058;-94
2021/10/24 05:42:46;;;;;;;6.60;4.03;;;;;;;11.15;71.57;99519.09;5139240;27;20459;-93
2021/10/24 05:45:12;;;;;;;6.07;3.53;;;;;;;11.19;70.51;99511.91;5139032;27;20118;-92
2021/10/24 05:47:39;;;;;;;8.10;3.60;;;;;;;11.24;71.18;99526.91;5139049;27;20446;-94
2021/10/24 05:50:05;;;;;;;6.65;3.63;;;;;;;11.19;71.19;99526.13;5138496;27;20038;-95
2021/10/24 05:52:33;;;;;;;8.32;4.13;;;;;;;11.10;71.23;99513.84;5138909;27;20397;-95
2021/10/24 05:54:58;;;;;;;6.88;3.70;;;;;;;11.26;70.33;99522.44;5132333;27;20485;-94
2021/10/24 05:57:24;;;;;;;6.97;3.65;;;;;;;11.23;69.90;99513.63;5138248;27;20031;-93
2021/10/24 05:59:50;;;;;;;5.63;3.53;;;;;;;11.41;70.13;99534.59;5139643;27;20088;-94
2021/10/24 06:02:16;;;;;;;7.38;3.50;;;;;;;11.45;69.65;99546.06;5138524;27;20046;-95
2021/10/24 06:04:42;;;;;;;7.22;3.53;;;;;;;11.41;67.95;99531.94;5139443;27;20055;-95
2021/10/24 06:07:09;;;;;;;6.65;3.78;;;;;;;11.59;67.84;99536.03;5138184;27;20118;-94
2021/10/24 06:15:22;;;;;;;7.70;3.35;;;;;;;11.87;65.03;99546.19;5189241;27;20365;-94
2021/10/24 06:17:49;;;;;;;4.60;2.55;;;;;;;11.89;64.95;99545.25;5155667;27;20142;-94
2021/10/24 06:20:16;;;;;;;7.05;3.00;;;;;;;11.94;64.32;99537.16;5156286;27;20562;-94
2021/10/24 06:22:43;;;;;;;7.75;2.92;;;;;;;12.07;64.52;99553.78;5156262;27;20095;-95
2021/10/24 06:25:11;;;;;;;8.00;3.20;;;;;;;12.04;64.69;99567.19;5144112;27;20039;-95
2021/10/24 06:27:37;;;;;;;5.65;3.00;;;;;;;12.15;64.39;99578.50;5136950;27;20040;-94
2021/10/24 06:30:05;;;;;;;4.70;2.65;;;;;;;12.19;63.28;99574.88;5139053;27;20039;-94
2021/10/24 06:32:33;;;;;;;6.88;2.83;;;;;;;12.07;64.47;99573.31;5150215;27;20043;-95
2021/10/24 06:35:00;;;;;;;6.25;2.92;;;;;;;11.94;64.42;99545.16;5156977;27;20039;-95
2021/10/24 06:37:30;;;;;;;4.75;2.85;;;;;;;11.98;64.89;99562.84;5155424;27;20080;-95
2021/10/24 06:39:56;;;;;;;5.07;2.75;;;;;;;12.03;64.90;99579.63;5142709;27;20138;-96
2021/10/24 06:42:22;;;;;;;8.38;2.90;;;;;;;12.13;64.44;99594.53;5138243;27;20047;-95
2021/10/24 06:44:48;;;;;;;5.55;3.13;;;;;;;12.13;63.51;99589.19;5137763;27;20457;-94
2021/10/24 06:47:13;;;;;;;4.53;2.58;;;;;;;12.18;63.29;99580.22;5144906;27;20039;-94
2021/10/24 06:49:41;;;;;;;5.40;2.80;;;;;;;12.33;62.61;99595.91;5154571;27;20042;-94
2021/10/24 06:52:07;;;;;;;5.50;2.65;;;;;;;12.31;62.34;99589.72;5151701;27;20130;-94
2021/10/24 06:54:33;;;;;;;6.47;2.75;;;;;;;12.39;62.22;99597.59;5157535;27;20559;-95
2021/10/24 06:57:00;;;;;;;5.35;2.47;;;;;;;12.43;62.07;99593.94;5155785;27;20043;-93
2021/10/24 06:59:26;;;;;;;6.53;2.45;;;;;;;12.77;61.59;99623.41;5137451;27;20122;-93
2021/10/24 07:01:52;;;;;;;7.32;2.70;;;;;;;12.85;61.62;99591.22;5137758;27;20067;-95
2021/10/24 07:04:18;;;;;;;6.57;2.63;;;;;;;13.06;60.40;99588.03;5155361;27;20039;-96
2021/10/24 07:06:45;;;;;;;10.48;2.70;;;;;;;13.35;60.63;99618.53;5144412;27;20031;-96
2021/10/24 07:09:11;;;;;;;6.07;2.75;;;;;;;13.32;60.42;99599.91;5156867;27;20042;-95
2021/10/24 07:11:37;;;;;;;5.18;2.95;;;;;;;13.17;61.31;99601.13;5151309;27;20035;-95
2021/10/24 07:14:03;;;;;;;6.85;2.38;;;;;;;13.15;61.64;99597.63;5151463;27;20107;-95
2021/10/24 07:16:29;;;;;;;9.20;2.85;;;;;;;13.10;61.78;99616.44;5154629;27;20045;-94
2021/10/24 07:18:55;;;;;;;5.95;2.90;;;;;;;13.10;61.38;99595.06;5148679;27;20035;-96
2021/10/24 07:21:21;;;;;;;5.35;2.72;;;;;;;13.04;62.02;99592.53;5132376;27;20065;-94
2021/10/24 07:23:50;;;;;;;5.60;2.70;;;;;;;13.31;62.54;99625.72;5117176;27;20064;-95
2021/10/24 07:26:16;;;;;;;;;;;;;;;13.38;62.38;99636.28;5110227;28;20052;-95
2021/10/24 07:28:42;;;;;;;7.50;2.90;;;;;;;13.19;62.30;99604.66;5121220;28;19926;-94
2021/10/24 07:31:08;;;;;;;9.15;2.80;;;;;;;13.18;62.54;99608.22;5120898;28;20047;-94
2021/10/24 07:33:34;;;;;;;5.20;2.70;;;;;;;13.40;62.49;99621.97;5113778;28;20105;-96
2021/10/24 07:36:02;;;;;;;5.75;2.60;;;;;;;13.40;62.12;99616.63;5117173;28;20047;-94
2021/10/24 07:38:30;;;;;;;8.90;2.78;;;;;;;13.50;61.95;99595.91;5105771;28;20115;-93
2021/10/24 07:40:57;;;;;;;7.57;3.03;;;;;;;13.76;61.44;99620.13;5104219;28;20048;-94
2021/10/24 07:43:24;;;;;;;7.13;2.80;;;;;;;13.76;61.26;99625.50;5110781;28;20098;-95
2021/10/24 07:45:51;;;;;;;8.27;3.03;;;;;;;13.96;60.24;99630.28;5115555;28;20079;-94
2021/10/24 07:48:19;;;;;;;4.68;2.40;;;;;;;14.11;60.75;99599.59;5108206;28;20088;-95
2021/10/24 07:50:51;;;;;;;6.50;3.15;;;;;;;14.09;59.33;99600.53;5107251;28;20040;-93
2021/10/24 07:53:19;;;;;;;4.32;2.25;;;;;;;14.42;58.98;99600.50;5119101;28;20071;-96
2021/10/24 07:55:45;;;;;;;5.75;2.50;;;;;;;14.33;59.53;99593.63;5100931;28;20077;-96
2021/10/24 07:58:13;;;;;;;4.97;2.30;;;;;;;14.49;59.12;99602.97;5109333;28;20044;-96
2021/10/24 08:00:39;;;;;;;7.97;2.45;;;;;;;14.58;59.58;99593.81;5118823;28;20094;-96
2021/10/24 08:03:09;;;;;;;5.93;2.60;;;;;;;14.63;59.76;99631.16;5120893;28;20048;-95
2021/10/24 08:05:35;;;;;;;9.48;2.70;;;;;;;14.56;59.93;99634.00;5119725;27;20043;-95
2021/10/24 08:08:01;;;;;;;8.20;2.80;;;;;;;14.64;59.89;99625.75;5119651;28;20105;-96
2021/10/24 08:10:27;;;;;;;7.35;2.83;;;;;;;14.53;59.53;99630.50;5108067;28;20036;-93
2021/10/24 08:12:54;;;;;;;8.60;3.05;;;;;;;14.70;59.84;99635.38;5100489;28;20540;-95
2021/10/24 08:15:21;;;;;;;5.40;2.70;;;;;;;14.73;59.00;99619.25;5147696;27;20064;-96
2021/10/24 08:17:48;;;;;;;5.32;2.80;;;;;;;14.79;59.33;99603.00;5142067;27;20046;-96
2021/10/24 08:20:15;;;;;;;4.68;2.78;;;;;;;14.94;58.99;99623.03;5140412;27;20039;-96
2021/10/24 08:22:41;;;;;;;6.40;2.58;;;;;;;14.82;60.74;99602.03;5142822;27;20489;-96
2021/10/24 08:25:08;;;;;;;7.80;2.58;;;;;;;15.13;59.01;99642.97;5143200;27;20067;-96
2021/10/24 08:27:34;;;;;;;8.27;2.85;;;;;;;14.68;59.18;99626.50;5140873;27;20043;-95
2021/10/24 08:30:01;;;;;;;6.80;2.67;;;;;;;14.69;59.75;99636.31;5140655;27;20039;-94
2021/10/24 08:32:28;;;;;;;9.07;2.63;;;;;;;14.75;59.32;99625.44;5143611;27;20043;-94
2021/10/24 08:34:54;;;;;;;7.07;2.90;;;;;;;14.84;59.85;99643.88;5143387;27;20079;-95
2021/10/24 08:37:20;;;;;;;5.57;2.90;;;;;;;14.64;60.33;99615.03;5141003;27;20038;-94
2021/10/24 08:42:57;;;;;;;6.15;3.50;;;;;;;14.86;59.74;99641.16;5094611;27;20364;-94
2021/10/24 08:45:23;;;;;;;6.68;2.90;;;;;;;14.97;60.03;99623.84;5079872;28;20044;-95
2021/10/24 08:47:49;;;;;;;7.78;4.00;;;;;;;14.90;59.11;99616.06;5075138;28;20059;-95
2021/10/24 08:50:15;;;;;;;5.38;2.85;;;;;;;14.84;59.13;99616.25;5075169;28;20062;-94
2021/10/24 08:52:44;;;;;;;8.63;3.08;;;;;;;14.94;59.36;99645.38;5075854;28;20099;-93
2021/10/24 08:55:10;;;;;;;7.18;3.72;;;;;;;14.92;59.80;99640.94;5076583;28;20052;-95
2021/10/24 08:57:37;;;;;;;8.15;3.22;;;;;;;15.14;58.57;99635.81;5076921;28;20123;-95
2021/10/24 09:00:07;;;;;;;6.05;3.00;;;;;;;15.11;58.88;99634.09;5074021;28;20560;-94
2021/10/24 09:02:55;;;;;;;8.07;3.30;;;;;;;15.06;58.93;99637.88;5075045;28;20140;-93
2021/10/24 09:05:29;;;;;;;5.72;2.63;;;;;;;15.06;58.43;99633.38;5070942;28;20053;-95
2021/10/24 09:07:56;;;;;;;7.85;2.75;;;;;;;14.96;58.69;99622.09;5074858;28;20112;-94
2021/10/24 09:10:40;;;;;;;12.95;4.28;;;;;;;14.97;58.81;99622.97;5074749;28;20391;-96
2021/10/24 09:13:07;;;;;;;8.55;3.03;;;;;;;15.09;57.54;99611.84;5074938;28;20047;-94
2021/10/24 09:15:52;;;;;;;8.23;2.72;;;;;;;15.37;58.33;99635.06;5075207;28;20128;-96
2021/10/24 09:18:21;;;;;;;5.13;2.67;;;;;;;15.11;58.16;99630.56;5075177;28;20410;-94
2021/10/24 09:20:47;;;;;;;5.22;3.08;;;;;;;15.26;58.03;99656.84;5073203;28;20033;-95
2021/10/24 09:23:17;;;;;;;6.82;2.97;;;;;;;15.17;58.16;99616.97;5075108;28;20041;-94
2021/10/24 09:25:56;;;;;;;7.32;2.75;;;;;;;15.35;57.72;99627.09;5076316;28;20132;-94
2021/10/24 09:28:24;;;;;;;7.60;3.30;;;;;;;15.46;57.47;99652.66;5075317;28;20049;-95
2021/10/24 09:31:03;;;;;;;7.47;3.08;;;;;;;15.39;57.28;99622.50;5075267;28;20045;-93
2021/10/24 09:33:43;;;;;;;5.55;2.90;;;;;;;15.26;57.63;99638.09;5073997;28;20434;-95
2021/10/24 09:36:11;;;;;;;5.90;3.08;;;;;;;15.39;57.85;99646.63;5074229;28;20513;-94
2021/10/24 09:38:40;;;;;;;11.27;3.35;;;;;;;15.33;57.20;99645.03;5073467;28;20049;-94
2021/10/24 09:41:06;;;;;;;10.27;3.60;;;;;;;15.26;57.72;99635.41;5073818;28;20075;-93
2021/10/24 09:43:33;;;;;;;6.13;3.00;;;;;;;15.42;57.50;99622.41;5073079;28;20045;-93
2021/10/24 09:46:13;;;;;;;6.70;2.90;;;;;;;15.60;57.31;99639.69;5073870;28;20445;-94
2021/10/24 09:48:44;;;;;;;6.55;3.30;;;;;;;15.49;57.47;99615.03;5072965;28;20075;-93
2021/10/24 09:51:12;;;;;;;7.88;3.00;;;;;;;15.37;58.34;99602.91;5072931;28;20068;-94
2021/10/24 09:53:39;;;;;;;6.57;2.95;;;;;;;15.60;57.78;99623.59;5061657;28;20040;-93
2021/10/24 09:56:08;;;;;;;7.13;3.15;;;;;;;15.70;57.50;99608.03;5059722;28;20037;-94
2021/10/24 09:58:35;;;;;;;8.85;3.30;;;;;;;15.57;57.66;99631.72;5059584;28;20057;-94
2021/10/24 10:01:02;;;;;;;7.53;3.67;;;;;;;15.60;57.89;99619.09;5058257;28;20044;-95
2021/10/24 10:03:31;;;;;;;9.05;3.05;;;;;;;15.76;58.14;99608.75;5058815;28;20158;-94
2021/10/24 10:05:58;;;;;;;10.48;5.38;;;;;;;15.79;57.94;99623.88;5058676;28;20478;-93
2021/10/24 10:08:25;;;;;;;5.57;3.33;;;;;;;15.79;58.58;99630.09;5059962;28;20102;-94
2021/10/24 10:10:54;;;;;;;6.28;3.42;;;;;;;15.76;57.96;99608.75;5054138;28;20057;-95
2021/10/24 10:13:27;;;;;;;5.30;2.88;;;;;;;15.80;57.42;99601.47;5040801;28;20045;-94
2021/10/24 10:15:54;;;;;;;9.38;4.32;;;;;;;15.76;57.42;99618.59;5062110;28;20056;-95
2021/10/24 10:18:21;;;;;;;6.97;3.10;;;;;;;15.85;57.05;99591.44;5059757;28;20075;-93
2021/10/24 10:20:50;;;;;;;13.65;6.18;;;;;;;16.05;58.26;99604.16;5059831;28;20041;-94
2021/10/24 10:23:22;;;;;;;6.90;3.35;;;;;;;15.88;57.14;99582.44;5060841;28;20045;-95
2021/10/24 10:25:49;;;;;;;11.60;5.65;;;;;;;16.14;56.91;99614.56;5060302;28;20114;-96
2021/10/24 10:28:53;;;;;;;8.07;3.60;;;;;;;16.26;56.47;99598.94;5059735;28;20394;-96
2021/10/24 10:31:19;;;;;;;8.10;3.70;;;;;;;16.32;55.18;99594.22;5040016;28;20109;-95
2021/10/24 10:33:57;;;;;;;9.85;3.15;;;;;;;16.31;55.40;99591.56;5050090;28;20069;-96
2021/10/24 10:36:59;;;;;;;5.93;2.97;;;;;;;16.27;56.22;99577.41;5058647;28;20090;-95
2021/10/24 10:39:41;;;;;;;10.77;3.28;;;;;;;16.23;56.65;99592.75;5060055;28;20127;-95
2021/10/24 10:42:45;;;;;;;6.18;3.15;;;;;;;16.42;55.40;99587.56;5058633;28;20090;-95
2021/10/24 10:45:24;;;;;;;6.45;3.10;;;;;;;16.43;55.77;99602.72;5059391;28;20104;-96
2021/10/24 10:47:53;;;;;;;6.50;3.13;;;;;;;16.33;56.80;99589.72;5059844;28;20048;-95
2021/10/24 10:53:55;;;;;;;7.90;3.42;;;;;;;16.71;55.99;99576.66;5154717;27;20370;-96
2021/10/24 10:56:25;;;;;;;8.98;3.20;;;;;;;16.81;55.39;99572.69;5155451;27;20047;-94
2021/10/24 10:58:53;;;;;;;5.25;3.10;;;;;;;16.80;56.31;99579.88;5157014;27;20092;-95
2021/10/24 11:01:31;;;;;;;13.00;4.10;;;;;;;16.84;54.64;99564.50;5152831;27;20039;-93
2021/10/24 11:03:59;;;;;;;;;;;;;;;16.82;55.58;99583.38;5157067;27;20369;-96
2021/10/24 11:06:52;;;;;;;5.30;2.75;;;;;;;16.70;55.88;99572.19;5156127;27;20372;-94
2021/10/24 11:09:42;;;;;;;5.78;3.00;;;;;;;16.40;56.60;99578.69;5156030;27;20050;-94
2021/10/24 11:12:09;;;;;;;5.68;3.03;;;;;;;16.58;57.27;99566.38;5157791;27;20453;-94
2021/10/24 11:14:45;;;;;;;6.80;4.07;;;;;;;16.30;56.57;99550.44;5156808;27;20042;-95
2021/10/24 11:17:45;;;;;;;9.98;3.53;;;;;;;16.48;56.40;99570.38;5156105;27;20035;-94
2021/10/24 11:20:21;;;;;;;8.88;3.25;;;;;;;16.40;57.65;99556.38;5153815;27;20043;-93
2021/10/24 11:22:53;;;;;;;8.07;3.40;;;;;;;16.25;57.49;99548.91;5151870;27;20130;-95
2021/10/24 11:25:32;;;;;;;7.25;3.10;;;;;;;16.47;56.78;99543.56;5155633;27;20408;-93
2021/10/24 11:28:06;;;;;;;7.18;3.17;;;;;;;16.51;57.16;99539.84;5156097;27;20465;-94
2021/10/24 11:30:33;;;;;;;5.50;3.00;;;;;;;16.43;56.74;99557.09;5153643;27;20460;-92
2021/10/24 11:33:00;;;;;;;7.32;3.53;;;;;;;16.52;57.57;99539.75;5153164;27;20507;-94
2021/10/24 11:35:26;;;;;;;9.95;3.42;;;;;;;16.59;57.29;99549.34;5153924;27;20111;-93
2021/10/24 11:37:54;;;;;;;8.75;3.70;;;;;;;16.46;57.58;99541.81;5154824;27;20038;-95
2021/10/24 11:40:28;;;;;;;8.23;3.47;;;;;;;16.39;57.10;99533.13;5154114;27;20035;-94
2021/10/24 11:43:04;;;;;;;9.52;3.92;;;;;;;16.50;57.87;99546.13;5154751;27;20400;-94
2021/10/24 11:45:33;;;;;;;8.30;3.30;;;;;;;16.39;57.53;99544.75;5155233;27;20043;-93
2021/10/24 11:48:04;;;;;;;8.10;3.53;;;;;;;16.50;58.26;99541.63;5154318;27;20126;-95
2021/10/24 11:50:43;;;;;;;7.75;3.38;;;;;;;16.27;58.06;99525.56;5154067;27;20050;-94
2021/10/24 11:53:23;;;;;;;7.63;3.85;;;;;;;16.08;58.58;99536.09;5154097;27;20138;-93